Time;durP1;ratioP1;P1;durP2;ratioP2;P2;SDS_P1;SDS_P2;PMS_P1;PMS_P2;Temp;Humidity;BMP_temperature;BMP_pressure;BME280_temperature;BME280_humidity;BME280_pressure;Samples;Min_cycle;Max_cycle;Signal;HPM_P1;HPM_P2
2021/09/27 00:02:08;;;;;;;12.55;6.10;;;;;;;;;;5078064;28;20020;-89
2021/09/27 00:04:34;;;;;;;18.27;5.78;;;;;;;;;;5077584;28;20012;-89
2021/09/27 00:06:59;;;;;;;13.23;5.80;;;;;;;;;;5096154;28;20371;-89
2021/09/27 00:09:32;;;;;;;15.55;6.32;;;;;;;;;;5077781;28;20429;-88
2021/09/27 00:11:57;;;;;;;11.18;6.22;;;;;;;;;;5077771;28;20020;-90
2021/09/27 00:14:22;;;;;;;13.52;6.32;;;;;;;;;;5077282;28;20024;-88
2021/09/27 00:16:48;;;;;;;13.57;6.43;;;;;;;;;;5095579;28;20402;-89
2021/09/27 00:19:13;;;;;;;12.13;6.47;;;;;;;;;;5077486;28;20013;-89
2021/09/27 00:21:38;;;;;;;12.07;6.22;;;;;;;;;;5077587;28;20074;-89
2021/09/27 00:24:04;;;;;;;10.77;5.95;;;;;;;;;;5095624;28;20148;-89
2021/09/27 00:26:29;;;;;;;14.23;6.75;;;;;;;;;;5077123;28;20023;-89
2021/09/27 00:28:54;;;;;;;15.73;6.30;;;;;;;;;;5095143;28;20020;-89
2021/09/27 00:31:20;;;;;;;16.25;6.57;;;;;;;;;;5077434;28;20085;-89
2021/09/27 00:33:46;;;;;;;10.00;6.30;;;;;;;;;;5077157;28;20533;-88
2021/09/27 00:36:11;;;;;;;14.15;6.15;;;;;;;;;;5077074;28;20067;-89
2021/09/27 00:38:36;;;;;;;13.40;6.13;;;;;;;;;;5075265;28;20012;-89
2021/09/27 00:41:06;;;;;;;11.93;6.40;;;;;;;;;;5095631;28;20073;-90
2021/09/27 00:43:34;;;;;;;11.48;6.28;;;;;;;;;;5077420;28;20024;-89
2021/09/27 00:46:00;;;;;;;14.93;6.57;;;;;;;;;;5095023;28;20137;-90
2021/09/27 00:48:27;;;;;;;10.00;5.20;;;;;;;;;;5077354;28;20024;-89
2021/09/27 00:50:56;;;;;;;8.82;5.40;;;;;;;;;;5077173;28;20111;-89
2021/09/27 00:53:24;;;;;;;8.32;5.43;;;;;;;;;;5094797;28;20050;-89
2021/09/27 00:55:50;;;;;;;12.73;6.30;;;;;;;;;;5076943;28;20545;-90
2021/09/27 00:58:16;;;;;;;16.25;5.88;;;;;;;;;;5095097;28;20016;-89
2021/09/27 01:00:42;;;;;;;18.10;5.60;;;;;;;;;;5093294;28;20024;-90
2021/09/27 01:03:07;;;;;;;15.43;5.97;;;;;;;;;;5093641;28;20069;-90
2021/09/27 01:05:35;;;;;;;21.42;5.22;;;;;;;;;;5093810;28;20016;-89
2021/09/27 01:08:06;;;;;;;9.25;5.20;;;;;;;;;;5074627;28;20482;-90
2021/09/27 01:10:39;;;;;;;13.48;5.30;;;;;;;;;;5075153;28;20046;-90
2021/09/27 01:13:17;;;;;;;7.55;4.90;;;;;;;;;;5071571;28;20465;-90
2021/09/27 01:16:01;;;;;;;10.68;5.20;;;;;;;;;;5061486;28;20421;-90
2021/09/27 01:18:26;;;;;;;10.90;5.10;;;;;;;;;;5074379;28;20547;-90
2021/09/27 01:20:52;;;;;;;12.90;5.72;;;;;;;;;;5092958;28;20034;-90
2021/09/27 01:23:36;;;;;;;11.73;6.00;;;;;;;;;;5074864;28;20020;-90
2021/09/27 01:26:07;;;;;;;12.48;6.15;;;;;;;;;;5083422;28;20020;-90
2021/09/27 01:28:51;;;;;;;12.00;6.18;;;;;;;;;;5104019;28;20028;-88
2021/09/27 01:31:35;;;;;;;10.88;6.07;;;;;;;;;;5076319;28;20065;-89
2021/09/27 01:34:04;;;;;;;11.82;6.07;;;;;;;;;;5075984;28;20044;-89
2021/09/27 01:36:34;;;;;;;15.15;6.22;;;;;;;;;;5094705;28;20020;-90
2021/09/27 01:39:06;;;;;;;14.88;6.57;;;;;;;;;;5075077;28;20092;-90
2021/09/27 01:41:32;;;;;;;12.18;5.45;;;;;;;;;;5075922;28;20426;-90
2021/09/27 01:44:09;;;;;;;9.98;5.88;;;;;;;;;;5076098;28;20012;-89
2021/09/27 01:46:45;;;;;;;13.70;5.60;;;;;;;;;;5076378;28;20027;-90
2021/09/27 01:49:17;;;;;;;12.50;5.40;;;;;;;;;;5075800;28;20016;-89
2021/09/27 01:52:01;;;;;;;9.93;5.67;;;;;;;;;;5075763;28;20482;-90
2021/09/27 01:54:29;;;;;;;11.13;5.72;;;;;;;;;;5093736;28;20276;-90
2021/09/27 01:56:59;;;;;;;12.50;5.65;;;;;;;;;;5075697;28;20008;-89
2021/09/27 01:59:37;;;;;;;13.98;6.65;;;;;;;;;;5075874;28;20047;-90
2021/09/27 02:02:02;;;;;;;14.45;6.90;;;;;;;;;;5075890;28;20054;-89
2021/09/27 02:04:30;;;;;;;15.30;7.47;;;;;;;;;;5075807;28;20028;-89
2021/09/27 02:06:57;;;;;;;16.65;8.60;;;;;;;;;;5075797;28;20405;-88
2021/09/27 02:09:28;;;;;;;15.65;7.55;;;;;;;;;;5075189;28;20024;-89
2021/09/27 02:12:00;;;;;;;13.02;7.40;;;;;;;;;;5093627;28;20012;-89
2021/09/27 02:14:31;;;;;;;21.40;7.53;;;;;;;;;;5075459;28;20066;-89
2021/09/27 02:17:06;;;;;;;15.65;7.18;;;;;;;;;;5093700;28;20020;-89
2021/09/27 02:19:51;;;;;;;11.70;6.47;;;;;;;;;;5093830;28;20046;-89
2021/09/27 02:22:24;;;;;;;12.68;6.45;;;;;;;;;;5096622;28;20379;-88
2021/09/27 02:24:52;;;;;;;17.65;7.07;;;;;;;;;;5075356;28;20107;-90
2021/09/27 02:27:18;;;;;;;16.55;7.60;;;;;;;;;;5073634;28;20447;-89
2021/09/27 02:29:43;;;;;;;16.70;7.22;;;;;;;;;;5075121;28;20043;-89
2021/09/27 02:32:08;;;;;;;14.70;6.93;;;;;;;;;;5060984;28;20026;-89
2021/09/27 02:34:38;;;;;;;13.98;6.82;;;;;;;;;;5068511;28;20107;-89
2021/09/27 02:37:08;;;;;;;13.07;6.28;;;;;;;;;;5093062;28;20009;-89
2021/09/27 02:39:43;;;;;;;13.95;6.22;;;;;;;;;;5075167;28;20495;-89
2021/09/27 02:42:11;;;;;;;13.23;6.18;;;;;;;;;;5075188;28;20027;-89
2021/09/27 02:44:36;;;;;;;14.68;6.10;;;;;;;;;;5092995;28;20054;-90
2021/09/27 02:47:03;;;;;;;17.73;6.75;;;;;;;;;;5074751;28;20418;-89
2021/09/27 02:49:41;;;;;;;11.40;5.78;;;;;;;;;;5108739;28;20527;-90
2021/09/27 02:52:06;;;;;;;9.55;5.55;;;;;;;;;;5075321;28;20173;-89
2021/09/27 02:54:31;;;;;;;11.18;5.45;;;;;;;;;;5074760;28;20523;-90
2021/09/27 02:57:15;;;;;;;14.02;5.65;;;;;;;;;;5074945;28;20016;-89
2021/09/27 03:00:02;;;;;;;17.27;6.57;;;;;;;;;;5060357;28;20020;-89
2021/09/27 03:02:33;;;;;;;16.40;5.60;;;;;;;;;;5075275;28;20020;-89
2021/09/27 03:05:06;;;;;;;18.58;6.63;;;;;;;;;;5075015;28;20438;-89
2021/09/27 03:07:34;;;;;;;13.82;6.55;;;;;;;;;;5075050;28;20107;-90
2021/09/27 03:09:59;;;;;;;16.65;7.53;;;;;;;;;;5074844;28;20031;-89
2021/09/27 03:12:40;;;;;;;15.65;8.02;;;;;;;;;;5074691;28;20050;-89
2021/09/27 03:15:18;;;;;;;14.75;6.97;;;;;;;;;;5074591;28;20013;-89
2021/09/27 03:17:56;;;;;;;15.02;7.43;;;;;;;;;;5074864;28;20413;-89
2021/09/27 03:20:27;;;;;;;13.48;7.25;;;;;;;;;;5074704;28;20015;-90
2021/09/27 03:23:09;;;;;;;16.37;7.50;;;;;;;;;;5074766;28;20062;-90
2021/09/27 03:25:43;;;;;;;17.02;7.22;;;;;;;;;;5094836;28;20026;-89
2021/09/27 03:28:19;;;;;;;14.45;7.78;;;;;;;;;;5092948;28;20532;-90
2021/09/27 03:30:44;;;;;;;12.68;6.85;;;;;;;;;;5079942;28;20036;-89
2021/09/27 03:33:16;;;;;;;12.13;5.97;;;;;;;;;;5074495;28;20028;-89
2021/09/27 03:35:50;;;;;;;12.68;6.70;;;;;;;;;;5092633;28;20023;-90
2021/09/27 03:38:21;;;;;;;13.27;7.15;;;;;;;;;;5092796;28;20016;-89
2021/09/27 03:40:47;;;;;;;12.57;6.05;;;;;;;;;;5060782;28;20008;-89
2021/09/27 03:43:12;;;;;;;17.38;6.90;;;;;;;;;;5074691;28;20020;-90
2021/09/27 03:45:56;;;;;;;11.55;6.38;;;;;;;;;;5074288;28;20016;-89
2021/09/27 03:48:26;;;;;;;17.45;6.75;;;;;;;;;;5079573;28;20020;-89
2021/09/27 03:50:59;;;;;;;16.05;6.30;;;;;;;;;;5074528;28;20028;-89
2021/09/27 03:53:51;;;;;;;14.80;6.18;;;;;;;;;;5092524;28;20032;-89
2021/09/27 03:56:36;;;;;;;12.40;6.53;;;;;;;;;;5072225;28;20050;-89
2021/09/27 03:59:07;;;;;;;14.10;6.90;;;;;;;;;;5071449;28;20115;-89
2021/09/27 04:01:42;;;;;;;16.77;7.95;;;;;;;;;;5074095;28;20471;-89
2021/09/27 04:04:14;;;;;;;14.85;6.72;;;;;;;;;;5076555;28;20035;-89
2021/09/27 04:06:39;;;;;;;16.90;6.57;;;;;;;;;;5076427;28;20020;-90
2021/09/27 04:09:09;;;;;;;12.80;6.65;;;;;;;;;;5076067;28;20024;-89
2021/09/27 04:11:53;;;;;;;14.02;7.25;;;;;;;;;;5076643;28;20030;-90
2021/09/27 04:14:22;;;;;;;15.10;7.00;;;;;;;;;;5076191;28;20024;-89
2021/09/27 04:16:56;;;;;;;17.00;7.60;;;;;;;;;;5094689;28;20012;-89
2021/09/27 04:19:30;;;;;;;13.65;6.97;;;;;;;;;;5076210;28;20043;-89
2021/09/27 04:22:18;;;;;;;14.77;8.30;;;;;;;;;;5094277;28;20024;-89
2021/09/27 04:24:44;;;;;;;14.82;8.18;;;;;;;;;;5094181;28;20024;-90
2021/09/27 04:27:28;;;;;;;12.95;7.68;;;;;;;;;;5075290;28;20489;-88
2021/09/27 04:30:12;;;;;;;14.85;8.13;;;;;;;;;;5095400;28;20032;-89
2021/09/27 04:32:50;;;;;;;13.75;7.57;;;;;;;;;;5077442;28;20028;-89
2021/09/27 04:35:29;;;;;;;16.55;8.18;;;;;;;;;;5077202;28;20115;-89
2021/09/27 04:37:54;;;;;;;15.25;7.07;;;;;;;;;;5095350;28;20434;-89
2021/09/27 04:40:24;;;;;;;12.57;7.15;;;;;;;;;;5077261;28;20107;-90
2021/09/27 04:43:08;;;;;;;13.93;6.97;;;;;;;;;;5077965;28;20047;-89
2021/09/27 04:45:52;;;;;;;13.15;7.38;;;;;;;;;;5095081;28;20027;-89
2021/09/27 04:48:20;;;;;;;16.40;6.97;;;;;;;;;;5077037;28;20487;-89
2021/09/27 04:50:57;;;;;;;20.15;7.68;;;;;;;;;;5076728;28;20085;-89
2021/09/27 04:53:31;;;;;;;14.35;7.45;;;;;;;;;;5098114;28;20035;-89
2021/09/27 04:56:33;;;;;;;13.73;7.07;;;;;;;;;;5076863;28;20032;-89
2021/09/27 04:59:17;;;;;;;15.73;7.60;;;;;;;;;;5032508;28;20026;-88
2021/09/27 05:02:01;;;;;;;16.20;7.88;;;;;;;;;;5077897;28;20862;-89
2021/09/27 05:04:36;;;;;;;15.93;7.45;;;;;;;;;;5076540;28;20024;-89
2021/09/27 05:07:15;;;;;;;20.55;9.07;;;;;;;;;;5076188;28;20028;-89
2021/09/27 05:09:40;;;;;;;14.27;7.47;;;;;;;;;;5110633;28;20020;-89
2021/09/27 05:12:24;;;;;;;17.92;9.90;;;;;;;;;;5095096;28;20012;-89
2021/09/27 05:14:52;;;;;;;18.52;9.07;;;;;;;;;;5076432;28;20023;-89
2021/09/27 05:17:20;;;;;;;18.77;9.60;;;;;;;;;;5076434;28;20016;-89
2021/09/27 05:19:46;;;;;;;18.60;9.77;;;;;;;;;;5094458;28;20013;-89
2021/09/27 05:22:34;;;;;;;19.20;9.05;;;;;;;;;;5076559;28;20460;-89
2021/09/27 05:25:08;;;;;;;20.38;9.18;;;;;;;;;;5095204;28;20118;-89
2021/09/27 05:27:36;;;;;;;16.00;7.88;;;;;;;;;;5094618;28;20486;-89
2021/09/27 05:30:01;;;;;;;18.48;8.20;;;;;;;;;;5075845;28;20012;-89
2021/09/27 05:32:29;;;;;;;17.83;9.48;;;;;;;;;;5076100;28;20467;-89
2021/09/27 05:34:55;;;;;;;17.52;9.02;;;;;;;;;;5094511;28;20016;-89
2021/09/27 05:37:26;;;;;;;18.17;9.10;;;;;;;;;;5076139;28;20517;-89
2021/09/27 05:39:54;;;;;;;18.17;8.50;;;;;;;;;;5094430;28;20027;-89
2021/09/27 05:42:19;;;;;;;18.38;7.88;;;;;;;;;;5075928;28;20123;-89
2021/09/27 05:44:57;;;;;;;16.05;8.27;;;;;;;;;;5075987;28;20048;-89
2021/09/27 05:47:25;;;;;;;18.48;7.28;;;;;;;;;;5076081;28;20024;-89
2021/09/27 05:49:50;;;;;;;17.13;8.13;;;;;;;;;;5093990;28;20020;-89
2021/09/27 05:52:21;;;;;;;14.98;7.90;;;;;;;;;;5075980;28;20032;-89
2021/09/27 05:54:47;;;;;;;14.70;7.63;;;;;;;;;;5075678;28;20023;-89
2021/09/27 05:57:16;;;;;;;14.82;7.78;;;;;;;;;;5075846;28;20016;-89
2021/09/27 05:59:49;;;;;;;14.45;9.27;;;;;;;;;;5074968;28;20378;-89
2021/09/27 06:02:21;;;;;;;15.30;8.07;;;;;;;;;;5069518;28;20445;-89
2021/09/27 06:04:57;;;;;;;15.87;8.03;;;;;;;;;;5077916;28;20134;-89
2021/09/27 06:07:28;;;;;;;17.92;7.85;;;;;;;;;;5074312;28;20265;-89
2021/09/27 06:10:13;;;;;;;13.43;7.38;;;;;;;;;;5074853;28;20016;-88
2021/09/27 06:13:01;;;;;;;13.30;6.45;;;;;;;;;;5092533;28;20031;-89
2021/09/27 06:15:33;;;;;;;20.13;7.50;;;;;;;;;;5059131;28;20035;-89
2021/09/27 06:18:16;;;;;;;13.15;7.15;;;;;;;;;;5075208;28;20498;-89
2021/09/27 06:20:46;;;;;;;16.05;8.00;;;;;;;;;;5075216;28;20024;-89
2021/09/27 06:23:14;;;;;;;13.77;7.40;;;;;;;;;;5090150;28;20030;-88
2021/09/27 06:25:58;;;;;;;15.20;6.82;;;;;;;;;;5074660;28;20062;-88
2021/09/27 06:28:39;;;;;;;13.63;7.40;;;;;;;;;;5074767;28;20371;-89
2021/09/27 06:31:19;;;;;;;11.23;6.05;;;;;;;;;;5075143;28;20027;-89
2021/09/27 06:33:45;;;;;;;12.77;6.30;;;;;;;;;;5074892;28;20157;-89
2021/09/27 06:36:12;;;;;;;14.80;6.97;;;;;;;;;;5074831;28;20535;-89
2021/09/27 06:38:38;;;;;;;14.50;7.10;;;;;;;;;;5074387;28;20070;-89
2021/09/27 06:41:04;;;;;;;15.95;7.05;;;;;;;;;;5074537;28;20471;-90
2021/09/27 06:43:29;;;;;;;13.75;6.70;;;;;;;;;;5074640;28;20074;-88
2021/09/27 06:45:55;;;;;;;19.88;6.75;;;;;;;;;;5074557;28;20112;-89
2021/09/27 06:48:21;;;;;;;11.68;6.72;;;;;;;;;;5075230;28;20023;-89
2021/09/27 06:50:47;;;;;;;12.90;6.93;;;;;;;;;;5074982;28;20455;-88
2021/09/27 06:53:12;;;;;;;14.88;7.18;;;;;;;;;;5074509;28;20024;-88
2021/09/27 06:55:38;;;;;;;12.35;6.78;;;;;;;;;;5081012;28;20421;-88
2021/09/27 06:58:03;;;;;;;13.85;7.35;;;;;;;;;;5074231;28;20020;-88
2021/09/27 07:00:29;;;;;;;13.52;6.30;;;;;;;;;;5074301;28;20043;-89
2021/09/27 07:02:54;;;;;;;10.98;6.45;;;;;;;;;;5073617;28;20455;-88
2021/09/27 07:05:20;;;;;;;15.43;7.15;;;;;;;;;;5074614;28;20047;-88
2021/09/27 07:07:45;;;;;;;15.32;7.18;;;;;;;;;;5073500;28;20031;-88
2021/09/27 07:10:12;;;;;;;19.58;7.57;;;;;;;;;;5074766;28;20375;-89
2021/09/27 07:12:38;;;;;;;11.90;7.10;;;;;;;;;;5074833;28;20024;-89
2021/09/27 07:15:04;;;;;;;11.07;6.40;;;;;;;;;;5074536;28;20058;-88
2021/09/27 07:17:29;;;;;;;15.52;6.85;;;;;;;;;;5074455;28;20065;-89
2021/09/27 07:19:54;;;;;;;10.32;5.82;;;;;;;;;;5074384;28;20107;-89
2021/09/27 07:22:19;;;;;;;13.35;6.75;;;;;;;;;;5092778;28;20456;-89
2021/09/27 07:24:45;;;;;;;11.15;7.03;;;;;;;;;;5074736;28;20016;-88
2021/09/27 07:27:11;;;;;;;14.07;6.05;;;;;;;;;;5092203;28;20031;-88
2021/09/27 07:29:36;;;;;;;12.60;6.38;;;;;;;;;;5092769;28;20372;-88
2021/09/27 07:32:03;;;;;;;12.57;7.00;;;;;;;;;;5074668;28;20016;-88
2021/09/27 07:34:28;;;;;;;11.55;5.70;;;;;;;;;;5074433;28;20047;-88
2021/09/27 07:36:53;;;;;;;11.75;6.07;;;;;;;;;;5076300;28;20020;-88
2021/09/27 07:39:19;;;;;;;11.73;6.63;;;;;;;;;;5078650;28;20024;-89
2021/09/27 07:41:44;;;;;;;16.95;5.80;;;;;;;;;;5078194;28;20394;-89
2021/09/27 07:44:09;;;;;;;11.55;6.10;;;;;;;;;;5078253;28;20024;-89
2021/09/27 07:46:35;;;;;;;13.70;6.57;;;;;;;;;;5078224;28;20016;-88
2021/09/27 07:49:00;;;;;;;13.80;7.10;;;;;;;;;;5077993;28;20027;-89
2021/09/27 07:51:26;;;;;;;10.40;6.45;;;;;;;;;;5111824;28;20032;-89
2021/09/27 07:53:51;;;;;;;12.18;6.18;;;;;;;;;;5111707;28;20031;-89
2021/09/27 07:56:16;;;;;;;12.55;7.15;;;;;;;;;;5095862;28;20062;-88
2021/09/27 07:58:42;;;;;;;13.48;6.40;;;;;;;;;;5077857;28;20035;-88
2021/09/27 08:01:07;;;;;;;13.93;6.82;;;;;;;;;;5096076;28;20016;-89
2021/09/27 08:03:32;;;;;;;12.80;6.53;;;;;;;;;;5078089;28;20012;-89
2021/09/27 08:05:57;;;;;;;8.80;5.30;;;;;;;;;;5078079;28;20530;-89
2021/09/27 08:08:23;;;;;;;11.57;6.55;;;;;;;;;;5095994;28;20031;-89
2021/09/27 08:10:48;;;;;;;14.07;6.68;;;;;;;;;;5096138;28;20016;-87
2021/09/27 08:13:15;;;;;;;13.05;6.80;;;;;;;;;;5077624;28;20016;-89
2021/09/27 08:15:41;;;;;;;14.02;6.70;;;;;;;;;;5077409;28;20020;-89
2021/09/27 08:18:08;;;;;;;13.38;6.20;;;;;;;;;;5077284;28;20023;-89
2021/09/27 08:20:35;;;;;;;11.25;6.60;;;;;;;;;;5077695;28;20446;-89
2021/09/27 08:23:00;;;;;;;14.27;5.95;;;;;;;;;;5077812;28;20016;-89
2021/09/27 08:25:26;;;;;;;11.73;5.60;;;;;;;;;;5095174;28;20523;-88
2021/09/27 08:27:51;;;;;;;7.63;5.30;;;;;;;;;;5077462;28;20059;-88
2021/09/27 08:30:22;;;;;;;8.60;5.93;;;;;;;;;;5077433;28;20103;-89
2021/09/27 08:32:47;;;;;;;12.77;5.90;;;;;;;;;;5077361;28;20016;-88
2021/09/27 08:35:14;;;;;;;8.80;5.68;;;;;;;;;;5077369;28;20024;-89
2021/09/27 08:37:40;;;;;;;12.32;5.43;;;;;;;;;;5077522;28;20069;-88
2021/09/27 08:40:05;;;;;;;10.15;5.28;;;;;;;;;;5095215;28;20455;-87
2021/09/27 08:42:34;;;;;;;14.13;5.70;;;;;;;;;;5077400;28;20023;-89
2021/09/27 08:45:03;;;;;;;10.82;4.82;;;;;;;;;;5095134;28;20028;-89
2021/09/27 08:47:31;;;;;;;7.82;5.10;;;;;;;;;;5076567;28;20034;-89
2021/09/27 08:49:58;;;;;;;8.88;5.03;;;;;;;;;;5076910;28;20020;-89
2021/09/27 08:52:24;;;;;;;9.70;4.15;;;;;;;;;;5077211;28;20081;-89
2021/09/27 08:54:51;;;;;;;8.70;4.20;;;;;;;;;;5077019;28;20016;-89
2021/09/27 08:57:25;;;;;;;8.77;3.90;;;;;;;;;;5076949;28;20107;-89
2021/09/27 08:59:54;;;;;;;8.00;3.92;;;;;;;;;;5076344;28;20414;-89
2021/09/27 09:02:19;;;;;;;8.15;3.72;;;;;;;;;;5085760;28;20020;-89
2021/09/27 09:05:03;;;;;;;7.60;4.15;;;;;;;;;;5076764;28;20020;-89
2021/09/27 09:07:29;;;;;;;5.65;3.85;;;;;;;;;;5076629;28;20455;-88
2021/09/27 09:10:04;;;;;;;5.15;3.35;;;;;;;;;;5076542;28;20056;-89
2021/09/27 09:12:49;;;;;;;8.35;3.63;;;;;;;;;;5076814;28;20026;-89
2021/09/27 09:15:21;;;;;;;11.25;3.20;;;;;;;;;;5076286;28;20026;-88
2021/09/27 09:17:46;;;;;;;4.80;2.47;;;;;;;;;;5076968;28;20475;-88
2021/09/27 09:20:18;;;;;;;4.43;3.22;;;;;;;;;;5094723;28;20090;-88
2021/09/27 09:22:43;;;;;;;;;;;;;;;;;;5076962;28;20471;-89
2021/09/27 09:25:32;;;;;;;8.23;3.17;;;;;;;;;;5110093;28;19929;-88
2021/09/27 09:27:58;;;;;;;5.43;1.95;;;;;;;;;;5070470;28;20035;-89
2021/09/27 09:30:28;;;;;;;5.03;2.70;;;;;;;;;;5076044;28;20020;-88
2021/09/27 09:32:53;;;;;;;8.52;3.45;;;;;;;;;;5076530;28;20589;-89
2021/09/27 09:35:22;;;;;;;5.10;2.13;;;;;;;;;;5076058;28;20110;-88
2021/09/27 09:37:51;;;;;;;4.20;2.58;;;;;;;;;;5094417;28;20454;-89
2021/09/27 09:40:16;;;;;;;4.40;2.55;;;;;;;;;;5075997;28;20027;-89
2021/09/27 09:42:53;;;;;;;7.65;2.70;;;;;;;;;;5076148;28;20568;-89
2021/09/27 09:45:24;;;;;;;4.13;2.55;;;;;;;;;;5075305;28;20024;-89
2021/09/27 09:47:49;;;;;;;1.58;0.88;;;;;;;;;;5076423;28;20114;-89
2021/09/27 09:50:27;;;;;;;4.38;2.67;;;;;;;;;;5076010;28;20433;-89
2021/09/27 09:52:54;;;;;;;7.30;1.60;;;;;;;;;;5074828;28;20067;-89
2021/09/27 09:55:36;;;;;;;3.95;2.65;;;;;;;;;;5102786;28;20028;-89
2021/09/27 09:58:07;;;;;;;4.75;1.48;;;;;;;;;;5073515;28;20484;-89
2021/09/27 10:00:42;;;;;;;4.03;2.13;;;;;;;;;;5064672;28;20131;-89
2021/09/27 10:03:08;;;;;;;2.97;1.67;;;;;;;;;;5073482;28;20012;-89
2021/09/27 10:05:37;;;;;;;5.85;2.60;;;;;;;;;;5075694;28;20482;-89
2021/09/27 10:08:06;;;;;;;3.20;2.00;;;;;;;;;;5093269;28;20133;-89
2021/09/27 10:10:31;;;;;;;4.57;1.80;;;;;;;;;;5075142;28;20028;-89
2021/09/27 10:12:57;;;;;;;4.82;2.67;;;;;;;;;;5074233;28;20035;-89
2021/09/27 10:15:25;;;;;;;6.72;1.42;;;;;;;;;;5074818;28;20032;-89
2021/09/27 10:17:58;;;;;;;3.38;1.83;;;;;;;;;;5093525;28;20024;-89
2021/09/27 10:20:25;;;;;;;1.83;1.08;;;;;;;;;;5075866;28;20020;-89
2021/09/27 10:23:00;;;;;;;3.47;2.00;;;;;;;;;;5093198;28;20024;-89
2021/09/27 10:25:35;;;;;;;2.65;1.85;;;;;;;;;;5093170;28;20052;-89
2021/09/27 10:28:01;;;;;;;4.32;2.50;;;;;;;;;;5093415;28;20036;-89
2021/09/27 10:30:36;;;;;;;3.80;1.80;;;;;;;;;;5074842;28;20377;-90
2021/09/27 10:33:02;;;;;;;5.10;3.10;;;;;;;;;;5093393;28;20024;-90
2021/09/27 10:35:28;;;;;;;4.80;2.03;;;;;;;;;;5091520;28;20069;-89
2021/09/27 10:38:10;;;;;;;5.47;2.08;;;;;;;;;;5074854;28;20024;-90
2021/09/27 10:40:36;;;;;;;5.38;2.10;;;;;;;;;;5074110;28;20040;-90
2021/09/27 10:43:03;;;;;;;3.85;2.13;;;;;;;;;;5104739;28;20370;-89
2021/09/27 10:45:29;;;;;;;3.72;1.13;;;;;;;;;;5108141;28;20081;-90
2021/09/27 10:47:56;;;;;;;5.53;2.45;;;;;;;;;;5092854;28;20028;-89
2021/09/27 10:50:24;;;;;;;3.17;1.95;;;;;;;;;;5075114;28;20424;-89
2021/09/27 10:52:50;;;;;;;5.60;2.25;;;;;;;;;;5092569;28;20028;-89
2021/09/27 10:55:38;;;;;;;8.65;2.00;;;;;;;;;;5074848;28;20032;-90
2021/09/27 10:58:08;;;;;;;5.55;2.47;;;;;;;;;;5066537;28;20173;-90
2021/09/27 11:00:53;;;;;;;5.15;2.10;;;;;;;;;;5092625;28;20421;-90
2021/09/27 11:03:25;;;;;;;4.93;2.00;;;;;;;;;;5091624;28;20016;-90
2021/09/27 11:05:56;;;;;;;5.05;1.92;;;;;;;;;;5074525;28;20012;-90
2021/09/27 11:08:38;;;;;;;5.43;2.80;;;;;;;;;;5107329;28;20028;-90
2021/09/27 11:11:22;;;;;;;5.65;1.25;;;;;;;;;;5077044;28;20111;-89
2021/09/27 11:13:47;;;;;;;4.97;2.85;;;;;;;;;;5066109;28;20040;-89
2021/09/27 11:16:21;;;;;;;3.50;1.30;;;;;;;;;;5085427;28;20146;-89
2021/09/27 11:18:53;;;;;;;3.15;1.38;;;;;;;;;;5088852;28;20534;-90
2021/09/27 11:21:21;;;;;;;4.10;2.00;;;;;;;;;;5095725;28;20370;-89
2021/09/27 11:23:49;;;;;;;2.28;0.82;;;;;;;;;;5118015;27;20020;-89
2021/09/27 11:26:14;;;;;;;1.17;0.75;;;;;;;;;;5078760;28;20113;-89
2021/09/27 11:28:45;;;;;;;1.25;0.73;;;;;;;;;;5095663;28;20008;-89
2021/09/27 11:31:25;;;;;;;2.70;1.00;;;;;;;;;;5096120;28;20097;-89
2021/09/27 11:33:52;;;;;;;3.72;0.75;;;;;;;;;;5106700;28;20024;-88
2021/09/27 11:36:17;;;;;;;3.42;1.75;;;;;;;;;;5068964;28;20012;-89
2021/09/27 11:38:47;;;;;;;2.60;1.30;;;;;;;;;;5096433;28;20371;-88
2021/09/27 11:41:12;;;;;;;2.13;1.50;;;;;;;;;;5099332;28;20467;-89
2021/09/27 11:43:57;;;;;;;3.47;1.42;;;;;;;;;;5095829;28;20070;-89
2021/09/27 11:46:24;;;;;;;5.43;1.92;;;;;;;;;;5077894;28;20016;-89
2021/09/27 11:48:55;;;;;;;5.63;1.50;;;;;;;;;;5096408;28;20365;-89
2021/09/27 11:51:22;;;;;;;1.98;1.20;;;;;;;;;;5077936;28;20092;-89
2021/09/27 11:53:54;;;;;;;4.07;1.80;;;;;;;;;;5096112;28;20028;-89
2021/09/27 11:56:29;;;;;;;5.80;1.63;;;;;;;;;;5095804;28;20103;-90
2021/09/27 11:58:57;;;;;;;2.60;1.50;;;;;;;;;;5095961;28;20058;-89
2021/09/27 12:01:41;;;;;;;2.85;1.55;;;;;;;;;;5095754;28;20106;-91
2021/09/27 12:04:17;;;;;;;5.07;2.53;;;;;;;;;;5077886;28;20375;-90
2021/09/27 12:07:03;;;;;;;2.63;1.02;;;;;;;;;;5077818;28;20024;-88
2021/09/27 12:09:33;;;;;;;1.80;0.75;;;;;;;;;;5077516;28;20063;-89
2021/09/27 12:11:59;;;;;;;0.95;0.43;;;;;;;;;;5095291;28;20027;-89
2021/09/27 12:14:28;;;;;;;6.97;1.13;;;;;;;;;;5076886;28;20360;-89
2021/09/27 12:16:58;;;;;;;2.17;1.70;;;;;;;;;;5077472;28;20494;-89
2021/09/27 12:19:29;;;;;;;3.42;1.33;;;;;;;;;;5096307;28;20024;-90
2021/09/27 12:22:05;;;;;;;1.58;0.70;;;;;;;;;;5076785;28;20035;-89
2021/09/27 12:24:33;;;;;;;2.75;0.93;;;;;;;;;;5095591;28;20061;-89
2021/09/27 12:27:04;;;;;;;1.25;0.68;;;;;;;;;;5076567;28;20044;-88
2021/09/27 12:29:29;;;;;;;5.47;1.90;;;;;;;;;;5092788;28;20466;-88
2021/09/27 12:32:03;;;;;;;3.15;2.00;;;;;;;;;;5077081;28;20059;-89
2021/09/27 12:34:42;;;;;;;6.40;2.35;;;;;;;;;;5077273;28;20032;-89
2021/09/27 12:37:11;;;;;;;2.85;0.93;;;;;;;;;;5077061;28;20016;-89
2021/09/27 12:39:37;;;;;;;5.57;2.15;;;;;;;;;;5077296;28;20012;-89
2021/09/27 12:42:04;;;;;;;4.60;1.90;;;;;;;;;;5095453;28;20463;-89
2021/09/27 12:44:32;;;;;;;6.55;1.90;;;;;;;;;;5077033;28;20048;-89
2021/09/27 12:47:00;;;;;;;2.25;1.10;;;;;;;;;;5077440;28;20419;-89
2021/09/27 12:49:28;;;;;;;3.97;1.80;;;;;;;;;;5076998;28;20024;-89
2021/09/27 12:51:55;;;;;;;5.63;1.73;;;;;;;;;;5077172;28;20119;-89
2021/09/27 12:54:36;;;;;;;5.18;0.88;;;;;;;;;;5076581;28;20028;-88
2021/09/27 12:57:04;;;;;;;2.00;1.05;;;;;;;;;;5077006;28;20016;-89
2021/09/27 12:59:31;;;;;;;6.07;1.10;;;;;;;;;;5094892;28;20020;-89
2021/09/27 13:02:01;;;;;;;2.22;1.30;;;;;;;;;;5075449;28;20043;-89
2021/09/27 13:04:26;;;;;;;4.07;1.60;;;;;;;;;;5076791;28;20020;-91
2021/09/27 13:06:58;;;;;;;2.70;1.58;;;;;;;;;;5077147;28;20024;-89
2021/09/27 13:09:26;;;;;;;0.88;0.68;;;;;;;;;;5077137;28;20077;-90
2021/09/27 13:12:10;;;;;;;4.68;1.45;;;;;;;;;;5094865;28;20096;-89
2021/09/27 13:14:38;;;;;;;3.92;1.58;;;;;;;;;;5094745;28;20067;-89
2021/09/27 13:17:09;;;;;;;6.25;2.20;;;;;;;;;;5076310;28;20046;-90
2021/09/27 13:19:37;;;;;;;2.15;0.82;;;;;;;;;;5076291;28;20019;-90
2021/09/27 13:22:03;;;;;;;3.95;0.88;;;;;;;;;;5076003;28;20032;-89
2021/09/27 13:24:30;;;;;;;1.60;1.15;;;;;;;;;;5077590;28;20031;-89
2021/09/27 13:27:00;;;;;;;1.27;0.68;;;;;;;;;;5079744;28;20670;-90
2021/09/27 13:29:45;;;;;;;3.90;1.77;;;;;;;;;;5094056;28;20795;-90
2021/09/27 13:32:10;;;;;;;3.42;1.58;;;;;;;;;;5075876;28;20032;-89
2021/09/27 13:34:38;;;;;;;4.47;1.40;;;;;;;;;;5093453;28;20459;-89
2021/09/27 13:37:13;;;;;;;3.25;1.50;;;;;;;;;;5076055;28;20619;-89
2021/09/27 13:39:40;;;;;;;3.00;1.70;;;;;;;;;;5094387;28;20065;-88
2021/09/27 13:42:07;;;;;;;0.55;0.20;;;;;;;;;;5061961;28;20023;-89
2021/09/27 13:44:36;;;;;;;3.08;1.20;;;;;;;;;;5075982;28;20032;-89
2021/09/27 13:47:01;;;;;;;1.52;1.10;;;;;;;;;;5093992;28;20482;-89
2021/09/27 13:49:27;;;;;;;2.92;1.27;;;;;;;;;;5076009;28;20107;-89
2021/09/27 13:51:52;;;;;;;1.65;1.05;;;;;;;;;;5094090;28;20413;-89
2021/09/27 13:54:17;;;;;;;1.95;1.20;;;;;;;;;;5075616;28;20063;-89
2021/09/27 13:56:43;;;;;;;2.10;1.20;;;;;;;;;;5093624;28;20016;-89
2021/09/27 13:59:08;;;;;;;3.03;1.13;;;;;;;;;;5075130;28;20104;-88
2021/09/27 14:01:34;;;;;;;1.83;1.00;;;;;;;;;;5093095;28;20023;-89
2021/09/27 14:03:59;;;;;;;2.83;1.08;;;;;;;;;;5075657;28;20062;-89
2021/09/27 14:06:25;;;;;;;3.47;1.30;;;;;;;;;;5093538;28;20016;-89
2021/09/27 14:08:50;;;;;;;6.28;1.35;;;;;;;;;;5075556;28;20045;-89
2021/09/27 14:11:16;;;;;;;0.93;0.63;;;;;;;;;;5075655;28;20118;-89
2021/09/27 14:13:42;;;;;;;1.50;0.70;;;;;;;;;;5075430;28;20012;-89
2021/09/27 14:16:10;;;;;;;1.63;0.80;;;;;;;;;;5093487;28;20512;-89
2021/09/27 14:18:35;;;;;;;1.80;0.75;;;;;;;;;;5093438;28;20008;-89
2021/09/27 14:21:00;;;;;;;1.00;0.60;;;;;;;;;;5075490;28;20027;-89
2021/09/27 14:23:26;;;;;;;1.85;0.50;;;;;;;;;;5075071;28;20016;-89
2021/09/27 14:25:52;;;;;;;2.40;0.60;;;;;;;;;;5108833;28;20464;-89
2021/09/27 14:28:19;;;;;;;5.18;1.05;;;;;;;;;;5075232;28;20044;-88
2021/09/27 14:30:45;;;;;;;2.13;0.50;;;;;;;;;;5093143;28;20016;-89
2021/09/27 14:33:10;;;;;;;2.08;0.60;;;;;;;;;;5075235;28;20123;-89
2021/09/27 14:35:39;;;;;;;1.90;0.63;;;;;;;;;;5074522;28;20110;-89
2021/09/27 14:38:05;;;;;;;3.03;0.50;;;;;;;;;;5075365;28;20103;-89
2021/09/27 14:40:30;;;;;;;0.93;0.30;;;;;;;;;;5092681;28;20020;-89
2021/09/27 14:42:56;;;;;;;1.35;0.40;;;;;;;;;;5074939;28;20064;-89
2021/09/27 14:45:21;;;;;;;2.08;0.50;;;;;;;;;;5092188;28;20024;-89
2021/09/27 14:47:46;;;;;;;2.08;0.40;;;;;;;;;;5075116;28;20023;-88
2021/09/27 14:50:15;;;;;;;0.40;0.25;;;;;;;;;;5075282;28;20028;-89
2021/09/27 14:52:40;;;;;;;2.42;0.40;;;;;;;;;;5074781;28;20030;-89
2021/09/27 14:55:06;;;;;;;3.17;0.45;;;;;;;;;;5093308;28;20020;-89